createdAt,value
2022-10-10T00:02:58.497Z,94.44
2022-10-10T00:07:00.571Z,93.87
2022-10-10T00:11:02.682Z,93.87
2022-10-10T00:15:05.594Z,93.33
2022-10-10T00:19:07.709Z,93.39
2022-10-10T00:23:09.757Z,94.07
2022-10-10T00:27:11.769Z,93.85
2022-10-10T00:31:14.180Z,92.50
2022-10-10T00:35:16.231Z,94.40
2022-10-10T00:39:18.250Z,93.62
2022-10-10T00:43:21.788Z,93.85
2022-10-10T00:47:23.866Z,93.86
2022-10-10T00:51:26.069Z,92.79
2022-10-10T00:55:28.227Z,94.31
2022-10-10T00:59:36.494Z,93.75
2022-10-10T01:03:38.530Z,93.68
2022-10-10T01:07:41.551Z,93.35
2022-10-10T01:12:00.595Z,93.62
2022-10-10T01:16:25.829Z,93.61
2022-10-10T01:20:45.428Z,95.48
2022-10-10T01:25:02.650Z,95.53
2022-10-10T01:29:17.604Z,95.84
2022-10-10T01:33:32.024Z,96.16
2022-10-10T01:37:45.161Z,96.20
2022-10-10T01:42:03.206Z,96.12
2022-10-10T01:46:13.561Z,97.09
2022-10-10T01:50:19.669Z,97.84
2022-10-10T01:54:47.584Z,98.50
2022-10-10T01:59:04.270Z,98.96
2022-10-10T02:03:21.976Z,99.82
2022-10-10T02:07:31.303Z,100.00
2022-10-10T02:11:38.143Z,100.00
2022-10-10T02:15:50.072Z,100.00
2022-10-10T02:19:56.697Z,100.00
2022-10-10T02:24:03.749Z,100.00
2022-10-10T02:28:25.699Z,100.00
2022-10-10T02:32:42.886Z,100.00
2022-10-10T02:36:49.448Z,100.00
2022-10-10T02:40:51.900Z,100.00
2022-10-10T02:44:55.057Z,100.00
2022-10-10T02:48:58.811Z,100.00
2022-10-10T02:53:00.804Z,100.00
2022-10-10T02:57:02.778Z,100.00
2022-10-10T03:01:04.903Z,100.00
2022-10-10T03:05:07.503Z,100.00
2022-10-10T03:09:09.497Z,100.00
2022-10-10T03:13:11.467Z,100.00
2022-10-10T03:17:13.442Z,100.00
2022-10-10T03:21:15.838Z,100.00
2022-10-10T03:25:17.877Z,100.00
2022-10-10T03:29:19.992Z,100.00
2022-10-10T03:33:22.533Z,100.00
2022-10-10T03:37:24.533Z,100.00
2022-10-10T03:41:26.545Z,100.00
2022-10-10T03:45:28.552Z,100.00
2022-10-10T03:49:30.673Z,100.00
2022-10-10T03:53:32.778Z,100.00
2022-10-10T03:57:34.977Z,100.00
2022-10-10T04:01:37.338Z,100.00
2022-10-10T04:05:39.733Z,100.00
2022-10-10T04:09:41.704Z,100.00
2022-10-10T04:13:43.684Z,100.00
2022-10-10T04:17:45.656Z,100.00
2022-10-10T04:21:47.642Z,100.00
2022-10-10T04:25:53.359Z,100.00
2022-10-10T04:29:55.348Z,100.00
2022-10-10T04:33:57.337Z,100.00
2022-10-10T04:37:59.336Z,100.00
2022-10-10T04:42:01.399Z,100.00
2022-10-10T04:46:03.551Z,100.00
2022-10-10T04:50:06.015Z,100.00
2022-10-10T04:54:08.057Z,100.00
2022-10-10T04:58:10.026Z,100.00
2022-10-10T05:02:12.103Z,100.00
2022-10-10T05:06:14.096Z,100.00
2022-10-10T05:10:16.362Z,100.00
2022-10-10T05:14:18.375Z,100.00
2022-10-10T05:18:21.438Z,100.00
2022-10-10T05:22:23.422Z,100.00
2022-10-10T05:26:25.483Z,100.00
2022-10-10T05:30:27.483Z,100.00
2022-10-10T05:34:29.569Z,100.00
2022-10-10T05:38:31.627Z,100.00
2022-10-10T05:42:33.624Z,100.00
2022-10-10T05:46:35.663Z,100.00
2022-10-10T05:50:40.631Z,100.00
2022-10-10T05:54:42.640Z,100.00
2022-10-10T05:58:45.244Z,100.00
2022-10-10T06:02:47.332Z,100.00
2022-10-10T06:06:50.342Z,100.00
2022-10-10T06:10:52.899Z,100.00
2022-10-10T06:14:54.930Z,100.00
2022-10-10T06:18:57.136Z,100.00
2022-10-10T06:22:59.143Z,100.00
2022-10-10T06:27:01.141Z,100.00
2022-10-10T06:31:06.513Z,100.00
2022-10-10T06:35:08.621Z,100.00
2022-10-10T06:39:10.669Z,99.47
2022-10-10T06:43:14.444Z,99.61
2022-10-10T06:47:16.918Z,99.32
2022-10-10T06:51:19.020Z,99.53
2022-10-10T06:55:21.000Z,99.44
2022-10-10T06:59:22.998Z,99.44
2022-10-10T07:03:25.880Z,99.38
2022-10-10T07:07:27.902Z,99.21
2022-10-10T07:11:30.096Z,98.80
2022-10-10T07:15:32.110Z,98.24
2022-10-10T07:19:37.223Z,97.87
2022-10-10T07:23:39.450Z,97.70
2022-10-10T07:27:41.546Z,97.38
2022-10-10T07:31:43.555Z,98.18
2022-10-10T07:35:54.040Z,100.00
2022-10-10T07:39:56.081Z,100.00
2022-10-10T07:43:58.125Z,100.00
2022-10-10T07:48:00.200Z,100.00
2022-10-10T07:52:02.523Z,100.00
2022-10-10T07:56:06.269Z,100.00
2022-10-10T08:00:10.012Z,100.00
2022-10-10T08:04:14.888Z,100.00
2022-10-10T08:08:16.891Z,100.00
2022-10-10T08:12:18.920Z,100.00
2022-10-10T08:16:21.062Z,99.95
2022-10-10T08:20:23.098Z,98.65
2022-10-10T08:24:25.206Z,96.52
2022-10-10T08:28:28.282Z,93.40
2022-10-10T08:32:30.427Z,92.22
2022-10-10T08:36:32.430Z,89.62
2022-10-10T08:40:42.360Z,87.21
2022-10-10T08:44:53.005Z,86.07
2022-10-10T08:48:58.440Z,86.13
2022-10-10T08:53:11.654Z,86.83
2022-10-10T08:57:26.030Z,88.16
2022-10-10T09:01:34.732Z,87.77
2022-10-10T09:05:36.681Z,87.58
2022-10-10T09:10:12.451Z,87.73
2022-10-10T09:14:44.709Z,86.70
2022-10-10T09:19:12.500Z,85.31
2022-10-10T09:23:19.734Z,84.18
2022-10-10T09:27:26.994Z,83.57
2022-10-10T09:31:33.948Z,83.48
2022-10-10T09:35:39.028Z,82.89
2022-10-10T09:39:48.698Z,82.27
2022-10-10T09:43:59.124Z,82.31
2022-10-10T09:48:01.107Z,82.06
2022-10-10T09:52:20.877Z,82.28
2022-10-10T09:56:27.319Z,81.48
2022-10-10T10:00:35.199Z,81.50
2022-10-10T10:04:37.232Z,81.32
2022-10-10T10:08:39.648Z,81.45
2022-10-10T10:12:44.122Z,80.86
2022-10-10T10:16:46.123Z,80.39
2022-10-10T10:20:51.363Z,80.23
2022-10-10T10:24:53.765Z,79.51
2022-10-10T10:29:00.317Z,79.66
2022-10-10T10:33:15.766Z,79.38
2022-10-10T10:37:23.896Z,79.65
2022-10-10T10:41:38.265Z,79.52
2022-10-10T10:46:07.136Z,79.28
2022-10-10T10:50:27.849Z,79.26
2022-10-10T10:54:40.128Z,77.73
2022-10-10T10:59:36.260Z,77.64
2022-10-10T11:05:16.047Z,76.63
2022-10-10T11:08:03.165Z,75.76
2022-10-10T11:12:27.039Z,75.29
2022-10-10T11:16:53.669Z,74.62
2022-10-10T11:21:05.376Z,74.12
2022-10-10T11:25:16.987Z,74.17
2022-10-10T11:29:27.771Z,73.46
2022-10-10T11:33:42.812Z,73.64
2022-10-10T11:37:53.174Z,73.37
2022-10-10T11:42:00.297Z,72.99
2022-10-10T11:46:33.920Z,72.84
2022-10-10T11:50:40.298Z,72.44
2022-10-10T11:55:14.011Z,71.45
2022-10-10T11:59:34.031Z,70.97
2022-10-10T12:03:36.020Z,70.09
2022-10-10T12:07:49.103Z,70.48
2022-10-10T12:12:02.633Z,69.90
2022-10-10T12:16:10.522Z,69.28
2022-10-10T12:20:15.587Z,65.01
2022-10-10T12:24:17.624Z,62.81
2022-10-10T12:28:56.318Z,61.61
2022-10-10T12:32:58.864Z,60.78
2022-10-10T12:37:21.653Z,60.17
2022-10-10T12:41:52.695Z,60.70
2022-10-10T12:46:09.603Z,59.94
2022-10-10T12:50:41.575Z,59.38
2022-10-10T12:54:45.634Z,59.45
2022-10-10T12:58:49.517Z,59.74
2022-10-10T13:02:57.716Z,59.62
2022-10-10T13:07:02.480Z,59.18
2022-10-10T13:11:13.343Z,58.88
2022-10-10T13:15:20.256Z,58.59
2022-10-10T13:19:24.354Z,58.34
2022-10-10T13:23:26.662Z,57.08
2022-10-10T13:27:32.281Z,56.96
2022-10-10T13:31:34.355Z,57.13
2022-10-10T13:35:38.157Z,57.17
2022-10-10T13:39:40.615Z,56.51
2022-10-10T13:43:42.697Z,57.07
2022-10-10T13:47:56.771Z,57.25
2022-10-10T13:52:20.221Z,57.39
2022-10-10T13:56:30.959Z,56.52
2022-10-10T14:00:33.058Z,55.53
2022-10-10T14:04:44.153Z,56.00
2022-10-10T14:08:48.183Z,55.56
2022-10-10T14:12:56.608Z,55.21
2022-10-10T14:17:00.991Z,55.17
2022-10-10T14:21:03.339Z,55.57
2022-10-10T14:25:05.941Z,55.66
2022-10-10T14:29:13.463Z,55.53
2022-10-10T14:33:17.632Z,54.61
2022-10-10T14:37:25.184Z,54.61
2022-10-10T14:41:27.298Z,54.93
2022-10-10T14:45:29.374Z,54.96
2022-10-10T14:49:31.357Z,54.96
2022-10-10T14:53:33.349Z,54.77
2022-10-10T14:57:35.330Z,57.13
2022-10-10T15:01:37.319Z,58.39
2022-10-10T15:05:40.316Z,59.25
2022-10-10T15:10:10.870Z,59.62
2022-10-10T15:14:06.843Z,60.66
2022-10-10T15:18:25.704Z,61.38
2022-10-10T15:22:31.687Z,62.39
2022-10-10T15:26:33.745Z,62.78
2022-10-10T15:30:39.484Z,63.48
2022-10-10T15:34:44.242Z,63.04
2022-10-10T15:38:46.332Z,63.31
2022-10-10T15:42:49.968Z,63.39
2022-10-10T15:46:53.127Z,63.67
2022-10-10T15:50:55.168Z,64.49
2022-10-10T15:54:57.183Z,65.66
2022-10-10T15:59:01.381Z,67.02
2022-10-10T16:03:03.483Z,68.56
2022-10-10T16:07:24.606Z,70.06
2022-10-10T16:11:28.343Z,71.43
2022-10-10T16:15:30.579Z,72.32
2022-10-10T16:19:32.609Z,73.11
2022-10-10T16:23:34.683Z,73.91
2022-10-10T16:27:38.465Z,75.15
2022-10-10T16:31:40.995Z,76.27
2022-10-10T16:35:43.097Z,77.12
2022-10-10T16:39:45.100Z,77.93
2022-10-10T16:43:48.044Z,78.52
2022-10-10T16:47:50.022Z,79.34
2022-10-10T16:51:52.031Z,79.80
2022-10-10T16:55:59.225Z,80.14
2022-10-10T17:00:01.194Z,80.64
2022-10-10T17:04:03.574Z,80.69
2022-10-10T17:08:05.610Z,80.51
2022-10-10T17:12:07.592Z,81.86
2022-10-10T17:20:43.323Z,83.03
2022-10-10T17:24:45.335Z,83.37
2022-10-10T17:28:47.416Z,83.73
2022-10-10T17:32:50.125Z,84.18
2022-10-10T17:36:52.853Z,84.31
2022-10-10T17:41:00.019Z,84.70
2022-10-10T17:45:02.094Z,84.20
2022-10-10T17:49:06.029Z,85.41
2022-10-10T17:53:08.031Z,86.67
2022-10-10T17:57:10.284Z,88.39
2022-10-10T18:01:14.547Z,88.41
2022-10-10T18:05:16.807Z,88.09
2022-10-10T18:09:18.851Z,87.83
2022-10-10T18:13:20.898Z,87.86
2022-10-10T18:17:23.104Z,87.92
2022-10-10T18:21:25.172Z,88.87
2022-10-10T18:25:27.426Z,90.26
2022-10-10T18:29:29.498Z,92.03
2022-10-10T18:33:31.501Z,93.09
2022-10-10T18:37:35.422Z,94.58
2022-10-10T18:41:37.525Z,95.77
2022-10-10T18:45:39.619Z,97.07
2022-10-10T18:49:41.761Z,97.92
2022-10-10T18:53:45.256Z,98.56
2022-10-10T18:57:47.295Z,99.72
2022-10-10T19:01:52.515Z,100.00
2022-10-10T19:05:55.440Z,100.00
2022-10-10T19:09:57.429Z,100.00
2022-10-10T19:14:01.156Z,100.00
2022-10-10T19:18:03.325Z,100.00
2022-10-10T19:22:05.367Z,100.00
2022-10-10T19:26:10.498Z,100.00
2022-10-10T19:30:13.352Z,100.00
2022-10-10T19:34:15.419Z,100.00
2022-10-10T19:38:17.399Z,100.00
2022-10-10T19:42:19.418Z,100.00
2022-10-10T19:46:22.636Z,100.00
2022-10-10T19:50:24.656Z,100.00
2022-10-10T19:54:26.684Z,100.00
2022-10-10T19:58:29.388Z,100.00
2022-10-10T20:02:32.174Z,100.00
2022-10-10T20:06:34.209Z,100.00
2022-10-10T20:10:39.672Z,100.00
2022-10-10T20:14:41.688Z,100.00
2022-10-10T20:18:43.835Z,100.00
2022-10-10T20:22:45.906Z,100.00
2022-10-10T20:26:47.961Z,100.00
2022-10-10T20:30:51.396Z,100.00
2022-10-10T20:34:53.382Z,100.00
2022-10-10T20:39:04.881Z,100.00
2022-10-10T20:43:07.178Z,100.00
2022-10-10T20:47:09.157Z,100.00
2022-10-10T20:51:12.968Z,100.00
2022-10-10T20:55:14.962Z,100.00
2022-10-10T20:59:18.294Z,100.00
2022-10-10T21:03:20.301Z,100.00
2022-10-10T21:07:22.433Z,100.00
2022-10-10T21:11:24.520Z,100.00
2022-10-10T21:15:26.584Z,100.00
2022-10-10T21:19:28.578Z,100.00
2022-10-10T21:23:35.149Z,100.00
2022-10-10T21:27:37.181Z,100.00
2022-10-10T21:31:40.671Z,100.00
2022-10-10T21:35:42.747Z,100.00
2022-10-10T21:39:44.937Z,100.00
2022-10-10T21:43:57.507Z,100.00
2022-10-10T21:47:59.538Z,100.00
2022-10-10T21:52:01.590Z,100.00
2022-10-10T21:56:08.957Z,100.00
2022-10-10T22:00:12.074Z,100.00
2022-10-10T22:04:14.118Z,100.00
2022-10-10T22:08:16.146Z,100.00
2022-10-10T22:12:18.205Z,100.00
2022-10-10T22:16:20.691Z,100.00
2022-10-10T22:20:22.924Z,100.00
2022-10-10T22:24:25.103Z,100.00
2022-10-10T22:28:27.263Z,100.00
2022-10-10T22:32:29.731Z,100.00
2022-10-10T22:36:31.798Z,100.00
2022-10-10T22:40:34.284Z,100.00
2022-10-10T22:44:36.355Z,100.00
2022-10-10T22:48:38.446Z,100.00
2022-10-10T22:52:41.220Z,100.00
2022-10-10T22:56:43.381Z,100.00
2022-10-10T23:00:45.466Z,100.00
2022-10-10T23:04:47.570Z,100.00
2022-10-10T23:08:49.616Z,100.00
2022-10-10T23:12:51.710Z,100.00
2022-10-10T23:16:53.735Z,100.00
2022-10-10T23:20:56.108Z,100.00
2022-10-10T23:24:58.194Z,100.00
2022-10-10T23:29:00.266Z,100.00
2022-10-10T23:33:02.321Z,100.00
2022-10-10T23:37:04.314Z,100.00
2022-10-10T23:41:07.272Z,100.00
2022-10-10T23:45:09.793Z,100.00
2022-10-10T23:49:11.795Z,100.00
2022-10-10T23:53:14.048Z,100.00
2022-10-10T23:57:16.043Z,100.00
